Time;durP1;ratioP1;P1;durP2;ratioP2;P2;SDS_P1;SDS_P2;PMS_P1;PMS_P2;Temp;Humidity;BMP_temperature;BMP_pressure;BME280_temperature;BME280_humidity;BME280_pressure;Samples;Min_cycle;Max_cycle;Signal;HPM_P1;HPM_P2
2023/08/11 00:02:22;;;;;;;7.40;6.18;;;;;;;;;;4993744;28;20045;-71
2023/08/11 00:04:49;;;;;;;7.72;6.57;;;;;;;;;;5013890;28;20470;-71
2023/08/11 00:07:16;;;;;;;7.88;7.07;;;;;;;;;;5004746;28;20057;-71
2023/08/11 00:09:42;;;;;;;7.85;7.05;;;;;;;;;;5012254;28;20053;-71
2023/08/11 00:12:08;;;;;;;9.07;7.00;;;;;;;;;;5008191;28;20484;-71
2023/08/11 00:14:34;;;;;;;10.07;7.32;;;;;;;;;;5018315;28;20589;-71
2023/08/11 00:17:00;;;;;;;8.98;7.90;;;;;;;;;;5006398;28;20211;-71
2023/08/11 00:19:26;;;;;;;8.93;8.02;;;;;;;;;;5023121;28;20046;-71
2023/08/11 00:21:52;;;;;;;8.95;8.00;;;;;;;;;;4995944;28;20050;-71
2023/08/11 00:24:18;;;;;;;9.07;8.18;;;;;;;;;;4994520;28;20132;-71
2023/08/11 00:26:44;;;;;;;10.38;8.73;;;;;;;;;;5012296;28;20092;-71
2023/08/11 00:29:11;;;;;;;10.10;8.95;;;;;;;;;;5001633;28;20413;-70
2023/08/11 00:31:37;;;;;;;11.82;10.02;;;;;;;;;;4997484;28;20050;-70
2023/08/11 00:34:03;;;;;;;11.70;9.38;;;;;;;;;;5012944;28;20048;-71
2023/08/11 00:36:29;;;;;;;13.45;9.18;;;;;;;;;;5005693;28;20053;-70
2023/08/11 00:39:00;;;;;;;12.60;9.82;;;;;;;;;;4998503;28;20069;-71
2023/08/11 00:41:26;;;;;;;11.52;10.32;;;;;;;;;;5004299;28;20064;-71
2023/08/11 00:43:52;;;;;;;13.52;10.73;;;;;;;;;;5013547;28;20053;-71
2023/08/11 00:46:20;;;;;;;11.85;10.63;;;;;;;;;;5009159;28;20046;-71
2023/08/11 00:48:50;;;;;;;13.52;11.23;;;;;;;;;;4990769;28;20046;-70
2023/08/11 00:51:18;;;;;;;13.55;10.48;;;;;;;;;;5008724;28;20042;-71
2023/08/11 00:53:45;;;;;;;13.20;11.40;;;;;;;;;;5024674;28;20053;-71
2023/08/11 00:56:12;;;;;;;16.05;11.35;;;;;;;;;;5006807;28;20106;-71
2023/08/11 00:58:38;;;;;;;17.35;11.77;;;;;;;;;;5023399;28;20053;-71
2023/08/11 01:01:04;;;;;;;13.40;11.50;;;;;;;;;;5011660;28;20050;-71
2023/08/11 01:03:31;;;;;;;13.05;11.27;;;;;;;;;;5008289;28;20042;-71
2023/08/11 01:06:26;;;;;;;14.60;10.93;;;;;;;;;;5020948;28;20385;-71
2023/08/11 01:09:06;;;;;;;13.48;11.57;;;;;;;;;;4983026;28;20385;-71
2023/08/11 01:11:33;;;;;;;13.25;11.20;;;;;;;;;;5005450;28;20511;-71
2023/08/11 01:14:06;;;;;;;15.85;12.38;;;;;;;;;;5004625;28;20045;-71
2023/08/11 01:16:33;;;;;;;14.88;12.13;;;;;;;;;;5009862;28;20076;-71
2023/08/11 01:18:59;;;;;;;15.98;12.13;;;;;;;;;;5009640;28;20042;-71
2023/08/11 01:21:26;;;;;;;13.98;12.48;;;;;;;;;;5012151;28;20049;-71
2023/08/11 01:23:53;;;;;;;14.15;12.45;;;;;;;;;;5008660;28;20042;-71
2023/08/11 01:26:19;;;;;;;14.00;12.50;;;;;;;;;;5003061;28;20103;-71
2023/08/11 01:28:45;;;;;;;15.32;11.90;;;;;;;;;;4991236;28;20484;-71
2023/08/11 01:31:11;;;;;;;14.77;12.52;;;;;;;;;;5009841;28;20050;-71
2023/08/11 01:33:37;;;;;;;16.15;13.23;;;;;;;;;;5015368;28;20044;-71
2023/08/11 01:36:04;;;;;;;17.77;12.73;;;;;;;;;;5001338;28;20046;-71
2023/08/11 01:38:30;;;;;;;18.17;13.48;;;;;;;;;;5007645;28;20054;-71
2023/08/11 01:40:57;;;;;;;15.73;13.32;;;;;;;;;;4991012;28;20045;-71
2023/08/11 01:43:27;;;;;;;15.95;14.27;;;;;;;;;;5013723;28;20150;-71
2023/08/11 01:45:53;;;;;;;16.17;13.70;;;;;;;;;;5013633;28;20081;-71
2023/08/11 01:48:20;;;;;;;16.02;14.30;;;;;;;;;;5002667;28;20145;-71
2023/08/11 01:50:46;;;;;;;17.55;15.07;;;;;;;;;;5018203;28;20049;-70
2023/08/11 01:53:12;;;;;;;16.17;14.23;;;;;;;;;;5027357;28;20175;-71
2023/08/11 01:55:39;;;;;;;16.85;15.05;;;;;;;;;;5016810;28;20049;-70
2023/08/11 01:58:06;;;;;;;16.25;14.55;;;;;;;;;;4992566;28;20042;-71
2023/08/11 02:00:32;;;;;;;16.75;14.95;;;;;;;;;;5019257;28;20041;-71
2023/08/11 02:02:58;;;;;;;17.83;15.05;;;;;;;;;;5026334;28;20178;-71
2023/08/11 02:05:24;;;;;;;17.27;15.00;;;;;;;;;;5015468;28;20065;-71
2023/08/11 02:07:52;;;;;;;16.83;14.77;;;;;;;;;;4993441;28;20115;-71
2023/08/11 02:10:18;;;;;;;17.45;15.65;;;;;;;;;;5024560;28;20082;-71
2023/08/11 02:12:44;;;;;;;17.75;15.68;;;;;;;;;;5010072;28;20053;-71
2023/08/11 02:15:13;;;;;;;17.73;15.93;;;;;;;;;;4995709;28;20050;-71
2023/08/11 02:17:39;;;;;;;18.90;16.10;;;;;;;;;;5014737;28;20048;-71
2023/08/11 02:20:21;;;;;;;20.73;16.75;;;;;;;;;;5027347;28;20083;-71
2023/08/11 02:22:47;;;;;;;20.33;16.50;;;;;;;;;;5009078;28;20056;-71
2023/08/11 02:25:14;;;;;;;19.77;17.58;;;;;;;;;;5014972;28;20049;-71
2023/08/11 02:27:40;;;;;;;25.05;17.38;;;;;;;;;;5010724;28;20053;-71
2023/08/11 02:30:10;;;;;;;18.90;16.52;;;;;;;;;;5004245;28;20057;-71
2023/08/11 02:32:37;;;;;;;19.70;17.67;;;;;;;;;;4998456;28;20050;-71
2023/08/11 02:35:04;;;;;;;19.17;17.17;;;;;;;;;;4998981;28;20057;-71
2023/08/11 02:37:30;;;;;;;22.20;18.15;;;;;;;;;;5011719;28;20053;-71
2023/08/11 02:39:56;;;;;;;18.80;16.90;;;;;;;;;;4995043;28;20060;-71
2023/08/11 02:42:24;;;;;;;21.67;18.10;;;;;;;;;;4994818;28;20157;-71
2023/08/11 02:44:50;;;;;;;20.90;18.73;;;;;;;;;;4992986;28;20103;-71
2023/08/11 02:47:17;;;;;;;23.13;19.88;;;;;;;;;;5002491;28;20049;-71
2023/08/11 02:49:43;;;;;;;22.17;19.50;;;;;;;;;;5004223;28;20084;-71
2023/08/11 02:52:09;;;;;;;23.98;20.05;;;;;;;;;;5024362;28;20077;-71
2023/08/11 02:54:35;;;;;;;22.05;19.13;;;;;;;;;;5016706;28;20052;-71
2023/08/11 02:57:01;;;;;;;23.92;19.42;;;;;;;;;;5017643;28;20057;-71
2023/08/11 02:59:28;;;;;;;22.20;19.85;;;;;;;;;;5008206;28;20072;-71
2023/08/11 03:01:54;;;;;;;22.67;20.17;;;;;;;;;;5011813;28;20042;-71
2023/08/11 03:04:20;;;;;;;23.58;20.42;;;;;;;;;;4993162;28;20122;-71
2023/08/11 03:06:47;;;;;;;26.58;21.30;;;;;;;;;;5017981;28;20050;-71
2023/08/11 03:09:13;;;;;;;23.70;21.13;;;;;;;;;;5105215;27;20054;-71
2023/08/11 03:11:40;;;;;;;22.55;20.25;;;;;;;;;;5124809;27;20042;-71
2023/08/11 03:14:06;;;;;;;23.60;21.08;;;;;;;;;;5024898;28;20046;-71
2023/08/11 03:16:32;;;;;;;23.65;21.15;;;;;;;;;;5010607;28;20054;-71
2023/08/11 03:18:58;;;;;;;22.90;20.50;;;;;;;;;;5010902;28;20037;-71
2023/08/11 03:21:27;;;;;;;24.80;21.95;;;;;;;;;;5015638;28;20069;-71
2023/08/11 03:23:53;;;;;;;24.17;21.67;;;;;;;;;;5041072;27;20049;-71
2023/08/11 03:26:19;;;;;;;24.42;21.63;;;;;;;;;;5134525;27;20051;-72
2023/08/11 03:28:48;;;;;;;25.17;21.23;;;;;;;;;;5133109;27;20039;-71
2023/08/11 03:31:14;;;;;;;24.85;21.70;;;;;;;;;;5029427;28;20053;-71
2023/08/11 03:33:40;;;;;;;23.90;21.15;;;;;;;;;;5011053;28;20045;-71
2023/08/11 03:36:06;;;;;;;24.38;21.10;;;;;;;;;;5012847;28;20053;-71
2023/08/11 03:38:32;;;;;;;23.92;21.42;;;;;;;;;;5003916;28;20041;-71
2023/08/11 03:40:58;;;;;;;23.48;20.83;;;;;;;;;;5012853;28;20041;-71
2023/08/11 03:43:24;;;;;;;26.50;21.00;;;;;;;;;;5015205;28;20386;-71
2023/08/11 03:45:51;;;;;;;22.38;20.00;;;;;;;;;;5019202;28;20046;-71
2023/08/11 03:48:17;;;;;;;24.45;21.63;;;;;;;;;;5014346;28;20477;-71
2023/08/11 03:50:45;;;;;;;23.42;20.80;;;;;;;;;;5012522;28;20048;-71
2023/08/11 03:53:12;;;;;;;23.38;21.00;;;;;;;;;;5025943;28;20059;-71
2023/08/11 03:55:38;;;;;;;24.25;21.42;;;;;;;;;;5010987;28;20079;-71
2023/08/11 03:58:04;;;;;;;23.35;20.30;;;;;;;;;;5000082;28;20049;-71
2023/08/11 04:00:30;;;;;;;23.40;21.00;;;;;;;;;;5015386;28;20045;-71
2023/08/11 04:02:56;;;;;;;24.30;21.25;;;;;;;;;;5042048;27;20045;-71
2023/08/11 04:05:24;;;;;;;24.00;21.35;;;;;;;;;;5011640;28;20076;-71
2023/08/11 04:07:50;;;;;;;24.10;20.45;;;;;;;;;;5016832;28;20077;-71
2023/08/11 04:10:16;;;;;;;23.27;20.88;;;;;;;;;;5022407;28;20397;-72
2023/08/11 04:12:43;;;;;;;23.05;20.65;;;;;;;;;;5001307;28;20049;-72
2023/08/11 04:15:09;;;;;;;22.05;19.73;;;;;;;;;;5022099;28;20046;-72
2023/08/11 04:17:36;;;;;;;21.77;19.52;;;;;;;;;;5000627;28;20132;-72
2023/08/11 04:20:11;;;;;;;22.08;19.65;;;;;;;;;;5015701;28;20088;-72
2023/08/11 04:22:37;;;;;;;21.80;19.55;;;;;;;;;;5010122;28;20095;-72
2023/08/11 04:25:05;;;;;;;22.08;19.90;;;;;;;;;;5021149;28;20042;-72
2023/08/11 04:27:31;;;;;;;22.52;20.20;;;;;;;;;;5019888;28;20400;-72
2023/08/11 04:29:57;;;;;;;21.67;19.35;;;;;;;;;;5001836;28;20042;-72
2023/08/11 04:32:23;;;;;;;23.55;21.02;;;;;;;;;;5009137;28;20045;-72
2023/08/11 04:34:49;;;;;;;21.75;19.35;;;;;;;;;;5022656;28;20392;-72
2023/08/11 04:37:18;;;;;;;21.80;19.63;;;;;;;;;;5029723;28;20498;-72
2023/08/11 04:39:44;;;;;;;22.13;19.05;;;;;;;;;;5028147;28;20075;-72
2023/08/11 04:42:10;;;;;;;21.88;19.55;;;;;;;;;;5011115;28;20128;-72
2023/08/11 04:44:36;;;;;;;21.45;19.35;;;;;;;;;;5029080;28;20133;-72
2023/08/11 04:47:02;;;;;;;20.35;18.25;;;;;;;;;;5022004;28;20370;-72
2023/08/11 04:49:28;;;;;;;20.65;18.55;;;;;;;;;;5016663;28;20480;-71
2023/08/11 04:51:54;;;;;;;20.52;18.42;;;;;;;;;;5028747;28;20046;-72
2023/08/11 04:54:20;;;;;;;20.02;17.92;;;;;;;;;;5009934;28;20575;-72
2023/08/11 04:56:46;;;;;;;20.10;18.10;;;;;;;;;;5029133;28;20046;-72
2023/08/11 04:59:12;;;;;;;19.33;17.33;;;;;;;;;;5029298;28;20124;-72
2023/08/11 05:01:38;;;;;;;22.63;18.85;;;;;;;;;;5026915;28;20077;-72
2023/08/11 05:04:04;;;;;;;20.02;17.13;;;;;;;;;;5010206;28;20100;-72
2023/08/11 05:06:31;;;;;;;19.73;17.73;;;;;;;;;;5028365;28;20061;-72
2023/08/11 05:08:57;;;;;;;21.58;17.20;;;;;;;;;;5008919;28;20074;-71
2023/08/11 05:11:23;;;;;;;18.30;16.50;;;;;;;;;;5009582;28;20080;-71
2023/08/11 05:13:49;;;;;;;19.15;17.15;;;;;;;;;;5010953;28;20081;-72
2023/08/11 05:16:15;;;;;;;18.40;16.40;;;;;;;;;;5005006;28;20125;-72
2023/08/11 05:18:43;;;;;;;18.83;16.90;;;;;;;;;;5014100;28;20497;-72
2023/08/11 05:21:09;;;;;;;20.30;17.20;;;;;;;;;;5009343;28;20469;-71
2023/08/11 05:23:35;;;;;;;17.85;15.93;;;;;;;;;;4990663;28;20095;-71
2023/08/11 05:26:02;;;;;;;18.55;16.67;;;;;;;;;;4995476;28;20052;-71
2023/08/11 05:28:28;;;;;;;18.23;16.17;;;;;;;;;;5028967;28;20050;-71
2023/08/11 05:30:56;;;;;;;18.73;16.75;;;;;;;;;;5023971;28;20454;-71
2023/08/11 05:33:22;;;;;;;20.13;16.20;;;;;;;;;;5012381;28;20046;-71
2023/08/11 05:35:48;;;;;;;18.48;16.52;;;;;;;;;;4998533;28;20102;-71
2023/08/11 05:38:14;;;;;;;18.77;16.75;;;;;;;;;;5031308;28;20138;-71
2023/08/11 05:40:42;;;;;;;20.23;16.10;;;;;;;;;;5030635;28;20461;-71
2023/08/11 05:43:08;;;;;;;21.08;15.95;;;;;;;;;;5031646;28;20048;-71
2023/08/11 05:45:34;;;;;;;22.30;17.23;;;;;;;;;;5013589;28;20060;-71
2023/08/11 05:48:00;;;;;;;18.52;16.63;;;;;;;;;;5014679;28;20053;-71
2023/08/11 05:50:26;;;;;;;18.17;16.35;;;;;;;;;;5029959;28;20094;-71
2023/08/11 05:52:52;;;;;;;18.33;16.40;;;;;;;;;;5010665;28;20641;-71
2023/08/11 05:55:19;;;;;;;19.23;16.60;;;;;;;;;;5024423;28;20088;-71
2023/08/11 05:57:45;;;;;;;19.92;16.70;;;;;;;;;;5030823;28;20049;-71
2023/08/11 06:00:11;;;;;;;18.48;15.65;;;;;;;;;;5032340;28;20500;-71
2023/08/11 06:02:37;;;;;;;18.75;15.88;;;;;;;;;;5012653;28;20053;-71
2023/08/11 06:05:03;;;;;;;19.13;16.55;;;;;;;;;;4993323;28;20095;-71
2023/08/11 06:07:29;;;;;;;18.23;15.82;;;;;;;;;;4994824;28;20050;-71
2023/08/11 06:09:55;;;;;;;18.92;16.17;;;;;;;;;;5027543;28;20053;-71
2023/08/11 06:12:21;;;;;;;18.55;16.55;;;;;;;;;;5030923;28;20622;-71
2023/08/11 06:14:48;;;;;;;16.60;14.90;;;;;;;;;;5031299;28;20045;-71
2023/08/11 06:17:16;;;;;;;17.67;15.93;;;;;;;;;;5030604;28;20442;-71
2023/08/11 06:19:42;;;;;;;19.27;16.08;;;;;;;;;;5030601;28;20041;-71
2023/08/11 06:22:08;;;;;;;17.10;15.32;;;;;;;;;;5012944;28;20041;-71
2023/08/11 06:24:34;;;;;;;17.73;15.25;;;;;;;;;;5010736;28;20396;-70
2023/08/11 06:27:00;;;;;;;17.70;15.88;;;;;;;;;;5011159;28;20546;-71
2023/08/11 06:29:26;;;;;;;17.90;16.05;;;;;;;;;;5011921;28;20506;-72
2023/08/11 06:31:52;;;;;;;17.13;15.30;;;;;;;;;;5011753;28;20554;-70
2023/08/11 06:34:21;;;;;;;18.92;15.30;;;;;;;;;;5020437;28;20050;-70
2023/08/11 06:36:48;;;;;;;17.60;15.70;;;;;;;;;;5030978;28;20477;-71
2023/08/11 06:39:14;;;;;;;16.75;15.07;;;;;;;;;;5031293;28;20198;-70
2023/08/11 06:41:40;;;;;;;16.98;15.27;;;;;;;;;;5028760;28;20052;-71
2023/08/11 06:44:07;;;;;;;17.10;15.27;;;;;;;;;;5029893;28;20050;-71
2023/08/11 06:46:33;;;;;;;17.83;16.00;;;;;;;;;;5013463;28;20084;-71
2023/08/11 06:48:59;;;;;;;16.80;14.80;;;;;;;;;;5029430;28;20045;-71
2023/08/11 06:51:25;;;;;;;17.13;15.27;;;;;;;;;;5031188;28;20045;-71
2023/08/11 06:53:51;;;;;;;17.73;15.52;;;;;;;;;;5030274;28;20080;-71
2023/08/11 06:56:17;;;;;;;17.17;14.68;;;;;;;;;;5030169;28;20049;-71
2023/08/11 06:58:43;;;;;;;17.75;15.43;;;;;;;;;;5025304;28;20117;-71
2023/08/11 07:01:09;;;;;;;16.58;14.88;;;;;;;;;;5010627;28;20042;-71
2023/08/11 07:03:35;;;;;;;17.13;15.38;;;;;;;;;;5011411;28;20064;-71
2023/08/11 07:06:04;;;;;;;17.85;14.10;;;;;;;;;;5030808;28;20496;-71
2023/08/11 07:08:30;;;;;;;17.02;15.18;;;;;;;;;;5012753;28;20194;-71
2023/08/11 07:10:56;;;;;;;15.70;14.10;;;;;;;;;;5012582;28;20136;-71
2023/08/11 07:13:22;;;;;;;17.70;15.95;;;;;;;;;;5012278;28;20041;-71
2023/08/11 07:15:48;;;;;;;16.60;14.35;;;;;;;;;;5028572;28;20045;-71
2023/08/11 07:18:14;;;;;;;18.50;14.52;;;;;;;;;;5003420;28;20060;-71
2023/08/11 07:20:44;;;;;;;19.20;14.18;;;;;;;;;;5010718;28;20042;-71
2023/08/11 07:23:10;;;;;;;16.73;14.70;;;;;;;;;;5025762;28;20050;-71
2023/08/11 07:25:37;;;;;;;16.58;14.07;;;;;;;;;;5030511;28;20050;-71
2023/08/11 07:28:04;;;;;;;16.27;14.52;;;;;;;;;;5029581;28;20060;-71
2023/08/11 07:30:30;;;;;;;16.65;13.90;;;;;;;;;;5030048;28;20057;-71
2023/08/11 07:32:56;;;;;;;14.25;12.57;;;;;;;;;;5016924;28;20129;-71
2023/08/11 07:35:23;;;;;;;15.80;14.20;;;;;;;;;;5017378;28;20034;-72
2023/08/11 07:37:49;;;;;;;17.95;13.05;;;;;;;;;;5010566;28;20061;-71
2023/08/11 07:40:16;;;;;;;14.32;12.73;;;;;;;;;;5030784;28;20052;-71
2023/08/11 07:42:42;;;;;;;17.08;14.18;;;;;;;;;;5029849;28;20489;-71
2023/08/11 07:45:08;;;;;;;16.33;14.10;;;;;;;;;;5028975;28;20564;-71
2023/08/11 07:47:34;;;;;;;17.13;14.23;;;;;;;;;;5010663;28;20136;-71
2023/08/11 07:50:00;;;;;;;15.25;13.13;;;;;;;;;;5022827;28;20473;-71
2023/08/11 07:52:26;;;;;;;15.27;12.02;;;;;;;;;;5029502;28;20095;-71
2023/08/11 07:54:52;;;;;;;15.43;12.80;;;;;;;;;;5028539;28;20388;-71
2023/08/11 07:57:18;;;;;;;15.65;12.93;;;;;;;;;;5029187;28;20038;-71
2023/08/11 07:59:44;;;;;;;15.73;13.07;;;;;;;;;;5029152;28;20431;-71
2023/08/11 08:02:12;;;;;;;16.45;13.57;;;;;;;;;;5009148;28;20055;-72
2023/08/11 08:04:38;;;;;;;18.67;13.15;;;;;;;;;;5010893;28;20057;-72
2023/08/11 08:07:04;;;;;;;17.05;13.00;;;;;;;;;;5027356;28;20045;-71
2023/08/11 08:09:33;;;;;;;16.00;12.38;;;;;;;;;;5030252;28;20049;-72
2023/08/11 08:12:00;;;;;;;19.13;12.82;;;;;;;;;;5028030;28;20037;-72
2023/08/11 08:14:26;;;;;;;14.85;11.98;;;;;;;;;;5012591;28;20038;-71
2023/08/11 08:16:52;;;;;;;17.23;11.90;;;;;;;;;;5029379;28;20552;-72
2023/08/11 08:19:20;;;;;;;12.88;10.65;;;;;;;;;;5028287;28;20045;-72
2023/08/11 08:21:46;;;;;;;15.65;12.05;;;;;;;;;;5028314;28;20081;-72
2023/08/11 08:24:16;;;;;;;13.02;11.52;;;;;;;;;;5028972;28;20049;-71
2023/08/11 08:26:43;;;;;;;18.30;11.27;;;;;;;;;;5028610;28;20431;-72
2023/08/11 08:29:09;;;;;;;12.95;9.82;;;;;;;;;;5011109;28;20046;-71
2023/08/11 08:31:35;;;;;;;11.23;10.05;;;;;;;;;;5029051;28;20041;-72
2023/08/11 08:34:02;;;;;;;14.00;10.27;;;;;;;;;;5028465;28;20492;-71
2023/08/11 08:36:28;;;;;;;14.40;9.88;;;;;;;;;;5012145;28;20057;-72
2023/08/11 08:38:54;;;;;;;11.90;8.80;;;;;;;;;;5024341;28;20038;-72
2023/08/11 08:41:23;;;;;;;12.15;8.85;;;;;;;;;;5022758;28;20476;-72
2023/08/11 08:43:51;;;;;;;14.15;9.15;;;;;;;;;;5029481;28;20045;-72
2023/08/11 08:46:20;;;;;;;13.27;9.05;;;;;;;;;;5011918;28;20090;-72
2023/08/11 08:49:12;;;;;;;12.88;9.50;;;;;;;;;;5027687;28;20465;-72
2023/08/11 08:51:39;;;;;;;13.82;9.38;;;;;;;;;;5007636;28;20059;-72
2023/08/11 08:54:08;;;;;;;11.70;8.45;;;;;;;;;;5028509;28;20049;-72
2023/08/11 08:56:36;;;;;;;15.38;9.38;;;;;;;;;;4994503;28;20509;-72
2023/08/11 08:59:02;;;;;;;15.13;10.40;;;;;;;;;;4994815;28;20120;-72
2023/08/11 09:01:28;;;;;;;15.80;11.38;;;;;;;;;;5028287;28;20512;-72
2023/08/11 09:03:55;;;;;;;16.80;10.98;;;;;;;;;;5011348;28;20057;-72
2023/08/11 09:06:22;;;;;;;14.35;11.13;;;;;;;;;;5009761;28;20057;-72
2023/08/11 09:08:48;;;;;;;16.15;11.30;;;;;;;;;;5010271;28;20488;-72
2023/08/11 09:11:17;;;;;;;15.73;12.20;;;;;;;;;;5027418;28;20538;-72
2023/08/11 09:13:44;;;;;;;14.90;12.18;;;;;;;;;;5027890;28;20560;-72
2023/08/11 09:16:11;;;;;;;15.02;11.43;;;;;;;;;;4996547;28;20081;-73
2023/08/11 09:18:37;;;;;;;14.40;11.38;;;;;;;;;;5009390;28;20038;-72
2023/08/11 09:21:03;;;;;;;15.18;11.63;;;;;;;;;;5009005;28;20042;-72
2023/08/11 09:23:29;;;;;;;15.70;12.43;;;;;;;;;;5020001;28;20038;-72
2023/08/11 09:25:56;;;;;;;14.52;12.30;;;;;;;;;;5028174;28;20048;-72
2023/08/11 09:28:22;;;;;;;16.77;11.93;;;;;;;;;;5019946;28;20103;-72
2023/08/11 09:30:50;;;;;;;13.77;12.27;;;;;;;;;;4990392;28;20054;-71
2023/08/11 09:33:17;;;;;;;17.58;13.00;;;;;;;;;;5001778;28;20100;-72
2023/08/11 09:35:43;;;;;;;16.08;13.07;;;;;;;;;;5027802;28;20064;-72
2023/08/11 09:38:09;;;;;;;15.93;12.80;;;;;;;;;;5011228;28;20608;-72
2023/08/11 09:40:35;;;;;;;15.77;13.57;;;;;;;;;;4992307;28;20053;-72
2023/08/11 09:43:02;;;;;;;16.58;12.95;;;;;;;;;;5014021;28;20144;-72
2023/08/11 09:45:31;;;;;;;15.80;13.30;;;;;;;;;;5014084;28;20057;-72
2023/08/11 09:47:57;;;;;;;14.90;13.20;;;;;;;;;;4991121;28;20086;-72
2023/08/11 09:50:26;;;;;;;15.05;12.43;;;;;;;;;;5008699;28;20049;-72
2023/08/11 09:52:52;;;;;;;15.55;12.93;;;;;;;;;;5018085;28;20492;-72
2023/08/11 09:55:19;;;;;;;17.63;13.43;;;;;;;;;;5028814;28;20129;-72
2023/08/11 09:57:45;;;;;;;20.48;12.73;;;;;;;;;;5027671;28;20050;-72
2023/08/11 10:00:12;;;;;;;16.90;13.02;;;;;;;;;;4999527;28;20552;-72
2023/08/11 10:02:41;;;;;;;15.25;12.90;;;;;;;;;;5007987;28;20123;-73
2023/08/11 10:05:08;;;;;;;17.55;12.73;;;;;;;;;;4986811;28;20050;-72
2023/08/11 10:07:37;;;;;;;17.58;13.95;;;;;;;;;;4989194;28;20046;-72
2023/08/11 10:10:07;;;;;;;17.10;14.27;;;;;;;;;;4989447;28;20125;-72
2023/08/11 10:12:36;;;;;;;19.40;14.93;;;;;;;;;;4992404;28;20611;-72
2023/08/11 10:15:03;;;;;;;20.77;14.77;;;;;;;;;;5009088;28;20045;-72
2023/08/11 10:17:29;;;;;;;17.02;14.75;;;;;;;;;;5006675;28;20061;-72
2023/08/11 10:19:55;;;;;;;19.33;15.27;;;;;;;;;;4994663;28;20070;-72
2023/08/11 10:22:22;;;;;;;14.80;13.23;;;;;;;;;;4992206;28;20079;-72
2023/08/11 10:24:48;;;;;;;16.50;13.52;;;;;;;;;;4991738;28;20047;-72
2023/08/11 10:27:15;;;;;;;19.10;14.32;;;;;;;;;;4990972;28;20046;-72
2023/08/11 10:29:42;;;;;;;16.67;14.32;;;;;;;;;;5005341;28;20064;-72
2023/08/11 10:32:09;;;;;;;17.45;15.43;;;;;;;;;;5011101;28;20081;-72
2023/08/11 10:34:35;;;;;;;19.08;14.52;;;;;;;;;;5003936;28;20099;-72
2023/08/11 10:37:01;;;;;;;19.15;15.55;;;;;;;;;;4992116;28;20078;-72
2023/08/11 10:39:27;;;;;;;18.10;15.35;;;;;;;;;;5006733;28;20042;-72
2023/08/11 10:41:55;;;;;;;18.33;15.63;;;;;;;;;;5011053;28;20049;-72
2023/08/11 10:44:27;;;;;;;21.58;16.17;;;;;;;;;;4996091;28;20047;-72
2023/08/11 10:46:53;;;;;;;19.30;16.27;;;;;;;;;;4991301;28;20136;-72
2023/08/11 10:49:20;;;;;;;21.98;16.23;;;;;;;;;;5001664;28;20133;-72
2023/08/11 10:51:46;;;;;;;18.98;16.05;;;;;;;;;;5010932;28;20477;-72
2023/08/11 10:54:18;;;;;;;19.10;16.35;;;;;;;;;;5009580;28;20053;-72
2023/08/11 10:56:45;;;;;;;17.92;15.70;;;;;;;;;;5011649;28;20049;-72
2023/08/11 10:59:17;;;;;;;20.83;16.35;;;;;;;;;;5010438;28;20045;-72
2023/08/11 11:01:45;;;;;;;18.95;16.45;;;;;;;;;;5010460;28;20477;-72
2023/08/11 11:04:12;;;;;;;17.85;15.35;;;;;;;;;;5007919;28;20452;-72
2023/08/11 11:06:39;;;;;;;22.50;16.05;;;;;;;;;;5015067;28;20046;-72
2023/08/11 11:09:07;;;;;;;20.20;15.43;;;;;;;;;;5028915;28;20560;-72
2023/08/11 11:11:33;;;;;;;18.13;15.27;;;;;;;;;;5029096;28;20128;-73
2023/08/11 11:13:59;;;;;;;21.10;16.45;;;;;;;;;;5003778;28;20057;-72
2023/08/11 11:16:27;;;;;;;18.63;15.05;;;;;;;;;;5010630;28;20038;-72
2023/08/11 11:18:53;;;;;;;18.05;16.02;;;;;;;;;;5025186;28;20459;-72
2023/08/11 11:21:19;;;;;;;19.65;16.00;;;;;;;;;;5029815;28;20042;-72
2023/08/11 11:23:49;;;;;;;20.40;15.73;;;;;;;;;;5014881;28;20052;-72
2023/08/11 11:26:16;;;;;;;19.50;15.18;;;;;;;;;;5010878;28;20058;-72
2023/08/11 11:28:42;;;;;;;19.35;14.90;;;;;;;;;;5019063;28;20085;-72
2023/08/11 11:31:08;;;;;;;16.90;14.73;;;;;;;;;;5029237;28;20045;-72
2023/08/11 11:33:37;;;;;;;19.17;15.85;;;;;;;;;;5001331;28;20054;-72
2023/08/11 11:36:03;;;;;;;16.50;14.50;;;;;;;;;;5009927;28;20084;-72
2023/08/11 11:38:30;;;;;;;18.27;14.88;;;;;;;;;;5011103;28;20042;-72
2023/08/11 11:40:56;;;;;;;16.70;13.98;;;;;;;;;;5014313;28;20045;-72
2023/08/11 11:43:22;;;;;;;19.60;14.88;;;;;;;;;;5012022;28;20049;-72
2023/08/11 11:45:52;;;;;;;16.48;13.70;;;;;;;;;;5030194;28;20069;-72
2023/08/11 11:48:18;;;;;;;16.13;14.50;;;;;;;;;;5012430;28;20408;-72
2023/08/11 11:50:44;;;;;;;16.98;14.65;;;;;;;;;;5004168;28;20132;-72
2023/08/11 11:53:10;;;;;;;20.13;15.15;;;;;;;;;;4993425;28;20057;-72
2023/08/11 11:55:54;;;;;;;19.60;16.60;;;;;;;;;;4992890;28;20050;-72
2023/08/11 11:58:21;;;;;;;16.83;15.10;;;;;;;;;;5011613;28;20050;-72
2023/08/11 12:00:47;;;;;;;21.88;16.90;;;;;;;;;;5029570;28;20052;-72
2023/08/11 12:03:13;;;;;;;19.52;16.30;;;;;;;;;;5026865;28;20041;-72
2023/08/11 12:05:40;;;;;;;21.50;15.73;;;;;;;;;;5008918;28;20086;-72
2023/08/11 12:08:23;;;;;;;18.38;16.10;;;;;;;;;;4992820;28;20050;-72
2023/08/11 12:10:50;;;;;;;18.33;16.40;;;;;;;;;;5019058;28;20098;-73
2023/08/11 12:13:17;;;;;;;20.38;17.38;;;;;;;;;;5012418;28;20128;-72
2023/08/11 12:15:47;;;;;;;18.30;15.57;;;;;;;;;;5028433;28;20049;-72
2023/08/11 12:18:13;;;;;;;19.23;16.42;;;;;;;;;;5025534;28;20087;-72
2023/08/11 12:20:40;;;;;;;17.75;15.88;;;;;;;;;;5028920;28;20041;-72
2023/08/11 12:23:06;;;;;;;21.25;17.30;;;;;;;;;;5029565;28;20128;-72
2023/08/11 12:25:32;;;;;;;21.73;17.45;;;;;;;;;;5028918;28;20056;-72
2023/08/11 12:28:01;;;;;;;19.60;17.50;;;;;;;;;;5010637;28;20046;-72
2023/08/11 12:30:28;;;;;;;21.50;17.10;;;;;;;;;;5010035;28;20174;-72
2023/08/11 12:32:54;;;;;;;20.50;17.27;;;;;;;;;;5022401;28;20118;-72
2023/08/11 12:35:20;;;;;;;20.60;17.90;;;;;;;;;;5028436;28;20491;-72
2023/08/11 12:37:46;;;;;;;18.55;16.58;;;;;;;;;;5028258;28;20405;-72
2023/08/11 12:40:12;;;;;;;18.85;16.85;;;;;;;;;;5028340;28;20560;-72
2023/08/11 12:42:39;;;;;;;18.38;15.27;;;;;;;;;;5009526;28;20056;-72
2023/08/11 12:45:07;;;;;;;17.02;14.63;;;;;;;;;;5009595;28;20501;-72
2023/08/11 12:47:33;;;;;;;18.35;15.73;;;;;;;;;;5010898;28;20056;-72
2023/08/11 12:49:59;;;;;;;14.50;13.00;;;;;;;;;;5028403;28;20121;-72
2023/08/11 12:52:25;;;;;;;17.17;14.40;;;;;;;;;;5029643;28;20049;-72
2023/08/11 12:54:51;;;;;;;14.75;11.88;;;;;;;;;;5009438;28;20056;-72
2023/08/11 12:57:17;;;;;;;15.65;13.60;;;;;;;;;;5007433;28;20053;-73
2023/08/11 12:59:43;;;;;;;16.92;13.80;;;;;;;;;;5008732;28;20056;-73
2023/08/11 13:02:09;;;;;;;15.60;12.27;;;;;;;;;;4992091;28;20042;-72
2023/08/11 13:04:35;;;;;;;14.73;11.63;;;;;;;;;;4991629;28;20065;-72
2023/08/11 13:07:01;;;;;;;16.70;12.68;;;;;;;;;;5025155;28;20041;-73
2023/08/11 13:09:27;;;;;;;14.75;12.50;;;;;;;;;;5028148;28;20046;-72
2023/08/11 13:11:53;;;;;;;16.50;11.60;;;;;;;;;;5016641;28;20126;-72
2023/08/11 13:14:20;;;;;;;17.00;12.02;;;;;;;;;;5019183;28;20041;-72
2023/08/11 13:16:46;;;;;;;12.68;9.20;;;;;;;;;;5011115;28;20052;-73
2023/08/11 13:19:12;;;;;;;11.55;9.38;;;;;;;;;;5028713;28;20485;-72
2023/08/11 13:21:38;;;;;;;13.45;8.90;;;;;;;;;;5010984;28;20046;-72
2023/08/11 13:24:04;;;;;;;12.55;9.18;;;;;;;;;;5009543;28;20048;-72
2023/08/11 13:26:31;;;;;;;14.38;9.02;;;;;;;;;;4995338;28;20041;-72
2023/08/11 13:28:58;;;;;;;13.13;8.77;;;;;;;;;;4999475;28;20054;-72
2023/08/11 13:31:24;;;;;;;16.80;8.07;;;;;;;;;;5009256;28;20129;-72
2023/08/11 13:33:50;;;;;;;10.63;7.05;;;;;;;;;;5021622;28;20040;-72
2023/08/11 13:36:17;;;;;;;13.63;7.75;;;;;;;;;;5028113;28;20496;-72
2023/08/11 13:38:43;;;;;;;12.63;6.70;;;;;;;;;;5016674;28;20050;-72
2023/08/11 13:41:09;;;;;;;10.48;6.22;;;;;;;;;;4991338;28;20041;-72
2023/08/11 13:43:38;;;;;;;12.00;5.85;;;;;;;;;;5008345;28;20125;-72
2023/08/11 13:46:04;;;;;;;10.45;5.90;;;;;;;;;;4991518;28;20214;-72
2023/08/11 13:48:30;;;;;;;12.00;5.47;;;;;;;;;;5002604;28;20053;-72
2023/08/11 13:50:57;;;;;;;12.45;6.68;;;;;;;;;;5026712;28;20140;-72
2023/08/11 13:53:23;;;;;;;11.20;5.53;;;;;;;;;;5012089;28;20049;-72
2023/08/11 13:55:49;;;;;;;11.45;5.55;;;;;;;;;;5025433;28;20511;-72
2023/08/11 13:58:15;;;;;;;12.02;5.82;;;;;;;;;;5007085;28;20049;-72
2023/08/11 14:00:42;;;;;;;11.93;5.85;;;;;;;;;;5001745;28;20148;-71
2023/08/11 14:03:08;;;;;;;10.23;5.53;;;;;;;;;;5019469;27;20034;-71
2023/08/11 14:05:34;;;;;;;6.43;4.97;;;;;;;;;;5028612;28;20061;-72
2023/08/11 14:08:00;;;;;;;11.02;5.35;;;;;;;;;;5030006;28;20061;-71
2023/08/11 14:10:26;;;;;;;10.23;5.53;;;;;;;;;;5030580;28;20041;-72
2023/08/11 14:12:53;;;;;;;10.55;5.85;;;;;;;;;;5031590;28;20050;-71
2023/08/11 14:15:19;;;;;;;11.38;5.35;;;;;;;;;;5031752;28;20053;-71
2023/08/11 14:17:45;;;;;;;9.15;5.85;;;;;;;;;;5029296;28;20042;-72